createdAt,value
2018-04-19T00:00:05.656Z,17
2018-04-19T00:15:05.211Z,16.9
2018-04-19T00:30:05.034Z,16.3
2018-04-19T00:45:04.834Z,16.3
2018-04-19T01:00:04.641Z,16.1
2018-04-19T01:15:05.068Z,15.8
2018-04-19T01:30:04.783Z,15.8
2018-04-19T01:45:04.871Z,15.6
2018-04-19T02:00:05.299Z,15.4
2018-04-19T02:15:05.016Z,15.3
2018-04-19T02:30:05.205Z,15.1
2018-04-19T02:45:04.357Z,14.9
2018-04-19T03:00:04.955Z,14.8
2018-04-19T03:15:05.002Z,14.6
2018-04-19T03:30:05.476Z,14.3
2018-04-19T03:45:05.257Z,14.2
2018-04-19T04:00:04.494Z,14
2018-04-19T04:15:04.973Z,14.2
2018-04-19T04:30:04.605Z,14
2018-04-19T04:45:04.720Z,14.1
2018-04-19T05:00:04.853Z,13.9
2018-04-19T05:15:04.526Z,13.9
2018-04-19T05:30:05.015Z,14.1
2018-04-19T05:45:04.575Z,14.7
2018-04-19T06:00:05.493Z,15.2
2018-04-19T06:15:05.090Z,16
2018-04-19T06:30:04.600Z,16.6
2018-04-19T06:45:05.244Z,0
2018-04-19T07:00:04.568Z,18.9
2018-04-19T07:15:05.269Z,20.2
2018-04-19T07:30:04.965Z,21.4
2018-04-19T07:45:05.160Z,25.3
2018-04-19T08:00:04.884Z,35.9
2018-04-19T08:15:05.294Z,39.2
2018-04-19T08:30:04.767Z,45.1
2018-04-19T08:45:05.517Z,48.6
2018-04-19T09:00:04.733Z,50.4
2018-04-19T09:15:04.798Z,48.6
2018-04-19T09:30:04.965Z,49.3
2018-04-19T09:45:04.982Z,43.7
2018-04-19T10:00:05.328Z,34
2018-04-19T10:15:04.580Z,30.7
2018-04-19T10:30:04.343Z,29.1
2018-04-19T10:45:05.038Z,28.1
2018-04-19T11:00:05.156Z,27.2
2018-04-19T11:15:04.938Z,26.8
2018-04-19T11:30:04.743Z,26.5
2018-04-19T11:45:04.799Z,26.4
2018-04-19T12:00:04.311Z,26.4
2018-04-19T12:15:05.033Z,26.4
2018-04-19T12:30:04.736Z,26.2
2018-04-19T12:45:04.294Z,26.2
2018-04-19T13:00:04.403Z,26.4
2018-04-19T13:15:04.477Z,26.5
2018-04-19T13:30:05.153Z,26.6
2018-04-19T13:45:05.875Z,26.5
2018-04-19T14:00:04.890Z,26.6
2018-04-19T14:15:05.195Z,26.7
2018-04-19T14:30:05.074Z,26.7
2018-04-19T14:45:04.672Z,26.7
2018-04-19T15:00:05.061Z,26.7
2018-04-19T15:15:04.969Z,26.8
2018-04-19T15:30:04.667Z,26.9
2018-04-19T15:45:04.671Z,26.9
2018-04-19T16:00:05.147Z,26.8
2018-04-19T16:15:05.206Z,26.8
2018-04-19T16:30:05.121Z,26.7
2018-04-19T16:45:05.154Z,26.4
2018-04-19T17:00:05.454Z,26.1
2018-04-19T17:15:04.496Z,26.2
2018-04-19T17:30:04.689Z,26.6
2018-04-19T17:45:05.207Z,26.6
2018-04-19T18:00:04.567Z,26.2
2018-04-19T18:15:04.661Z,25.8
2018-04-19T18:30:04.369Z,25.4
2018-04-19T18:45:05.247Z,24.9
2018-04-19T19:00:05.330Z,24.5
2018-04-19T19:15:05.121Z,23.9
2018-04-19T19:30:04.595Z,23.6
2018-04-19T19:45:05.183Z,23.1
2018-04-19T20:00:04.780Z,22.9
2018-04-19T20:15:04.585Z,22.6
2018-04-19T20:30:04.359Z,22.2
2018-04-19T20:45:04.580Z,22.2
2018-04-19T21:00:04.769Z,21.8
2018-04-19T21:15:04.326Z,21.7
2018-04-19T21:30:05.306Z,21.3
2018-04-19T21:45:04.384Z,20.7
2018-04-19T22:00:05.134Z,20.5
2018-04-19T22:15:05.160Z,20.5
2018-04-19T22:30:04.742Z,20.1
2018-04-19T22:45:04.565Z,19.9
2018-04-19T23:00:05.458Z,20
2018-04-19T23:15:04.935Z,19.7
2018-04-19T23:30:05.056Z,19.3
2018-04-19T23:45:05.084Z,19
